Time;durP1;ratioP1;P1;durP2;ratioP2;P2;SDS_P1;SDS_P2;PMS_P1;PMS_P2;Temp;Humidity;BMP_temperature;BMP_pressure;BME280_temperature;BME280_humidity;BME280_pressure;Samples;Min_cycle;Max_cycle;Signal;HPM_P1;HPM_P2
2021/10/13 00:03:59;;;;;;;5.88;0.60;;;7.80;99.90;;;;;;20720181;28;20423;-45
2021/10/13 00:14:01;;;;;;;0.65;0.40;;;7.80;99.90;;;;;;20725270;28;20049;-45
2021/10/13 00:24:02;;;;;;;3.15;0.65;;;7.70;99.90;;;;;;20711956;28;20045;-45
2021/10/13 00:34:03;;;;;;;2.15;0.40;;;7.70;99.90;;;;;;20706134;28;20046;-45
2021/10/13 00:44:05;;;;;;;1.15;0.60;;;7.60;99.90;;;;;;20716873;28;20044;-45
2021/10/13 00:54:08;;;;;;;0.80;0.25;;;7.60;99.90;;;;;;20701112;28;20644;-45
2021/10/13 01:04:46;;;;;;;0.77;0.45;;;7.50;99.90;;;;;;20712660;28;20064;-45
2021/10/13 01:15:11;;;;;;;0.80;0.37;;;7.30;99.90;;;;;;20666231;28;21367;-45
2021/10/13 01:25:41;;;;;;;1.20;0.45;;;7.30;99.90;;;;;;20667962;28;20046;-45
2021/10/13 01:35:50;;;;;;;0.68;0.20;;;7.20;99.90;;;;;;20657798;28;20303;-45
2021/10/13 01:45:54;;;;;;;3.38;0.77;;;7.30;99.90;;;;;;20664673;28;20030;-45
2021/10/13 01:55:57;;;;;;;2.92;0.40;;;7.30;99.90;;;;;;20700149;28;20046;-45
2021/10/13 02:06:02;;;;;;;0.93;0.32;;;7.40;99.90;;;;;;20716913;28;20476;-45
2021/10/13 02:16:05;;;;;;;1.80;0.45;;;7.40;99.90;;;;;;20701292;28;20049;-45
2021/10/13 02:26:15;;;;;;;2.58;0.70;;;7.40;99.90;;;;;;20718192;28;20501;-45
2021/10/13 02:36:16;;;;;;;1.85;0.50;;;7.50;99.90;;;;;;20700810;28;20050;-45
2021/10/13 02:46:47;;;;;;;2.60;0.40;;;7.50;99.90;;;;;;20713610;28;20056;-45
2021/10/13 02:56:51;;;;;;;1.27;0.40;;;7.40;99.90;;;;;;20710246;28;20434;-45
2021/10/13 03:07:03;;;;;;;1.75;0.57;;;7.50;99.90;;;;;;20730106;28;20038;-45
2021/10/13 03:17:05;;;;;;;0.95;0.28;;;7.40;99.90;;;;;;20721228;28;20037;-45
2021/10/13 03:27:06;;;;;;;0.75;0.38;;;7.50;99.90;;;;;;20702718;28;20045;-45
2021/10/13 03:37:07;;;;;;;0.82;0.40;;;7.50;99.90;;;;;;20685994;28;20399;-45
2021/10/13 03:47:09;;;;;;;2.50;0.60;;;7.70;99.90;;;;;;20645617;28;20045;-45
2021/10/13 03:57:11;;;;;;;0.73;0.30;;;7.70;99.90;;;;;;20661675;28;20057;-45
2021/10/13 04:07:12;;;;;;;1.35;0.47;;;7.80;99.90;;;;;;20706942;28;20458;-45
2021/10/13 04:17:13;;;;;;;1.15;0.47;;;7.90;99.90;;;;;;20734315;28;20061;-45
2021/10/13 04:27:14;;;;;;;1.15;0.30;;;7.90;99.90;;;;;;20713083;28;20039;-45
2021/10/13 04:37:15;;;;;;;1.27;0.38;;;8.00;99.90;;;;;;20682458;28;20046;-45
2021/10/13 04:47:18;;;;;;;1.00;0.30;;;8.20;99.90;;;;;;20710111;28;20038;-45
2021/10/13 04:57:19;;;;;;;0.50;0.15;;;8.20;99.90;;;;;;20718324;28;20096;-45
2021/10/13 05:07:20;;;;;;;0.88;0.40;;;8.10;99.90;;;;;;20733954;28;20052;-45
2021/10/13 05:17:21;;;;;;;0.88;0.40;;;8.00;99.90;;;;;;20730285;28;20057;-45
2021/10/13 05:27:23;;;;;;;2.08;0.30;;;7.80;99.90;;;;;;20731240;28;20044;-45
2021/10/13 05:37:25;;;;;;;1.05;0.30;;;7.70;99.90;;;;;;20725749;28;20427;-45
2021/10/13 05:47:26;;;;;;;0.77;0.30;;;7.80;99.90;;;;;;20725978;28;20068;-45
2021/10/13 05:57:27;;;;;;;1.70;0.52;;;7.70;99.90;;;;;;20707641;28;20045;-45
2021/10/13 06:07:28;;;;;;;1.23;0.60;;;7.70;99.90;;;;;;20666891;28;20042;-45
2021/10/13 06:17:32;;;;;;;1.48;0.32;;;7.70;99.90;;;;;;20652988;28;20047;-45
2021/10/13 06:27:33;;;;;;;1.10;0.30;;;7.70;99.90;;;;;;20652944;28;20377;-45
2021/10/13 06:37:34;;;;;;;2.50;0.80;;;7.70;99.90;;;;;;20668182;28;20046;-45
2021/10/13 06:47:36;;;;;;;3.97;0.60;;;7.70;99.90;;;;;;20704164;28;20038;-45
2021/10/13 06:57:37;;;;;;;4.95;1.42;;;7.80;99.90;;;;;;20718595;28;20038;-45
2021/10/13 07:07:47;;;;;;;1.48;0.52;;;8.10;99.90;;;;;;20719445;28;20050;-45
2021/10/13 07:17:49;;;;;;;3.50;0.75;;;8.50;99.90;;;;;;20728738;28;20351;-45
2021/10/13 07:27:51;;;;;;;2.95;0.90;;;8.90;99.90;;;;;;20726353;28;20045;-45
2021/10/13 07:37:52;;;;;;;4.72;0.80;;;9.30;99.90;;;;;;20729292;28;20649;-45
2021/10/13 07:47:53;;;;;;;1.40;0.40;;;9.60;99.90;;;;;;20728302;28;20056;-45
2021/10/13 07:57:55;;;;;;;2.42;0.73;;;9.80;99.90;;;;;;20723767;28;20074;-45
2021/10/13 08:07:56;;;;;;;2.25;0.57;;;9.90;99.90;;;;;;20748132;28;20062;-45
2021/10/13 08:17:57;;;;;;;2.35;0.70;;;10.00;99.90;;;;;;20754104;28;20064;-45
2021/10/13 08:27:58;;;;;;;1.80;0.63;;;10.20;99.90;;;;;;20749975;28;20048;-45
2021/10/13 08:38:00;;;;;;;2.00;0.40;;;10.30;99.90;;;;;;20751663;28;20481;-45
2021/10/13 08:48:02;;;;;;;0.57;0.32;;;10.40;99.90;;;;;;20746363;28;20317;-45
2021/10/13 08:58:12;;;;;;;1.17;0.30;;;10.60;99.90;;;;;;20741185;28;20506;-45
2021/10/13 09:08:13;;;;;;;0.40;0.17;;;10.80;99.90;;;;;;20736089;28;20084;-45
2021/10/13 09:18:14;;;;;;;0.88;0.20;;;11.20;99.90;;;;;;20733352;28;20050;-45
2021/10/13 09:28:17;;;;;;;1.45;0.30;;;11.50;99.90;;;;;;20723252;28;20041;-45
2021/10/13 09:38:21;;;;;;;1.67;0.40;;;11.70;99.90;;;;;;20721014;28;20511;-45
2021/10/13 09:48:23;;;;;;;0.93;0.28;;;11.90;99.90;;;;;;20708318;28;20128;-45
2021/10/13 09:58:26;;;;;;;3.63;0.20;;;12.20;99.90;;;;;;20660377;28;20724;-45
2021/10/13 10:08:27;;;;;;;1.48;0.57;;;12.30;99.90;;;;;;20725982;28;20052;-45
2021/10/13 10:18:37;;;;;;;0.60;0.20;;;12.70;99.90;;;;;;20712224;28;20543;-46
2021/10/13 10:28:50;;;;;;;0.50;0.20;;;13.00;99.90;;;;;;20683495;28;20145;-46
2021/10/13 10:38:51;;;;;;;2.25;0.20;;;13.30;99.90;;;;;;20682692;28;20459;-46
2021/10/13 10:48:52;;;;;;;1.52;0.20;;;13.40;99.90;;;;;;20707940;28;20042;-45
2021/10/13 10:59:06;;;;;;;2.38;0.25;;;13.00;99.90;;;;;;20689033;28;20627;-45
2021/10/13 11:09:12;;;;;;;0.77;0.17;;;12.40;99.90;;;;;;20695941;28;20046;-45
2021/10/13 11:19:24;;;;;;;1.27;0.30;;;12.20;99.90;;;;;;20664882;28;20065;-45
2021/10/13 11:29:28;;;;;;;0.15;0.10;;;12.20;99.90;;;;;;20645326;28;20042;-45
2021/10/13 11:39:31;;;;;;;1.83;0.10;;;12.30;99.90;;;;;;20636401;28;20057;-45
2021/10/13 11:50:02;;;;;;;0.93;0.15;;;12.30;99.90;;;;;;20585104;28;20420;-46
2021/10/13 12:00:12;;;;;;;0.55;0.20;;;13.10;99.90;;;;;;20597388;28;22076;-46
2021/10/13 12:10:32;;;;;;;1.48;0.38;;;13.20;99.90;;;;;;20649593;28;20050;-46
2021/10/13 12:20:33;;;;;;;1.40;0.20;;;13.20;99.90;;;;;;20657252;28;20052;-46
2021/10/13 12:30:37;;;;;;;1.45;0.30;;;13.20;99.90;;;;;;20686517;28;20045;-45
2021/10/13 12:40:39;;;;;;;0.80;0.20;;;13.00;99.90;;;;;;20707478;28;20040;-45
2021/10/13 12:51:07;;;;;;;1.70;0.40;;;13.10;99.90;;;;;;20706760;28;20157;-46
2021/10/13 13:01:08;;;;;;;;;;;13.40;99.90;;;;;;20667134;28;21287;-46
2021/10/13 13:11:09;;;;;;;1.58;0.45;;;13.50;99.90;;;;;;20641096;28;19939;-46
2021/10/13 13:21:10;;;;;;;0.88;0.15;;;13.70;99.90;;;;;;20671462;28;20042;-46
2021/10/13 13:31:11;;;;;;;1.90;0.85;;;13.70;99.90;;;;;;20670123;28;20034;-46
2021/10/13 13:41:13;;;;;;;0.70;0.30;;;13.60;99.90;;;;;;20723807;28;20072;-46
2021/10/13 13:51:17;;;;;;;0.10;0.00;;;13.80;99.90;;;;;;20709065;28;20068;-46
2021/10/13 14:01:24;;;;;;;1.23;0.20;;;14.60;99.90;;;;;;20713757;28;20073;-46
2021/10/13 14:11:25;;;;;;;0.63;0.13;;;15.20;99.90;;;;;;20722737;28;20045;-46
2021/10/13 14:21:28;;;;;;;5.40;0.20;;;14.70;99.90;;;;;;20721123;28;20412;-46
2021/10/13 14:31:29;;;;;;;1.23;0.47;;;14.30;99.90;;;;;;20714714;28;20049;-45
2021/10/13 14:41:30;;;;;;;4.32;0.50;;;14.00;99.90;;;;;;20703782;28;20046;-46
2021/10/13 14:51:32;;;;;;;0.45;0.30;;;14.10;99.90;;;;;;20646465;28;20042;-46
2021/10/13 15:01:34;;;;;;;1.05;0.20;;;14.10;99.90;;;;;;20646455;28;20065;-45
2021/10/13 15:11:35;;;;;;;0.50;0.10;;;13.90;99.90;;;;;;20688416;28;20037;-46
2021/10/13 15:21:38;;;;;;;3.95;0.30;;;13.60;99.90;;;;;;20716913;28;20057;-45
2021/10/13 15:31:39;;;;;;;3.42;0.38;;;13.50;99.90;;;;;;20722745;28;20038;-46
2021/10/13 15:41:41;;;;;;;0.52;0.15;;;13.30;99.90;;;;;;20723750;28;20045;-45
2021/10/13 15:51:42;;;;;;;1.17;0.13;;;13.20;99.90;;;;;;20729646;28;20038;-45
2021/10/13 16:01:43;;;;;;;0.95;0.30;;;13.10;99.90;;;;;;20687722;28;20578;-46
2021/10/13 16:11:44;;;;;;;2.03;0.55;;;13.10;99.90;;;;;;20659892;28;20412;-46
2021/10/13 16:21:45;;;;;;;5.68;0.30;;;13.00;99.90;;;;;;20667351;28;20049;-46
2021/10/13 16:31:47;;;;;;;0.50;0.10;;;12.90;99.90;;;;;;20658842;28;20389;-45
2021/10/13 16:41:49;;;;;;;0.63;0.30;;;12.80;99.90;;;;;;20660401;28;20046;-45
2021/10/13 16:51:50;;;;;;;0.77;0.32;;;12.70;99.90;;;;;;20650009;28;20038;-46
2021/10/13 17:01:51;;;;;;;1.05;0.47;;;12.60;99.90;;;;;;20657443;28;20042;-45
2021/10/13 17:11:52;;;;;;;1.00;0.63;;;12.50;99.90;;;;;;20659713;28;20042;-46
2021/10/13 17:21:54;;;;;;;1.35;0.30;;;12.50;99.90;;;;;;20664638;28;20054;-45
2021/10/13 17:31:55;;;;;;;1.55;0.43;;;12.40;99.90;;;;;;20667379;28;20053;-45
2021/10/13 17:41:56;;;;;;;1.15;0.38;;;12.40;99.90;;;;;;20719842;28;20045;-45
2021/10/13 17:51:57;;;;;;;1.33;0.30;;;12.30;99.90;;;;;;20715064;28;20049;-45
2021/10/13 18:01:58;;;;;;;6.75;1.90;;;12.30;99.90;;;;;;20723824;28;20054;-45
2021/10/13 18:11:59;;;;;;;3.40;1.88;;;12.20;99.90;;;;;;20696017;28;20057;-45
2021/10/13 18:22:00;;;;;;;1.55;0.52;;;12.20;99.90;;;;;;20688051;28;20049;-45
2021/10/13 18:32:03;;;;;;;2.90;0.52;;;12.10;99.90;;;;;;20643065;28;20046;-45
2021/10/13 18:42:04;;;;;;;3.25;0.45;;;12.00;99.90;;;;;;20698419;28;20045;-46
2021/10/13 18:52:06;;;;;;;4.15;0.55;;;12.00;99.90;;;;;;20644680;28;20046;-45
2021/10/13 19:02:07;;;;;;;1.48;0.32;;;11.90;99.90;;;;;;20647096;28;20046;-46
2021/10/13 19:12:09;;;;;;;2.63;1.23;;;12.00;99.90;;;;;;20650545;28;20042;-45
2021/10/13 19:22:10;;;;;;;1.88;0.70;;;12.00;99.90;;;;;;20645294;28;20605;-45
2021/10/13 19:32:11;;;;;;;1.63;0.50;;;12.00;99.90;;;;;;20644537;28;20042;-45
2021/10/13 19:42:12;;;;;;;3.90;1.52;;;12.10;99.90;;;;;;20689074;28;20042;-45
2021/10/13 19:52:14;;;;;;;1.45;0.50;;;12.10;99.90;;;;;;20722316;28;20061;-45
2021/10/13 20:02:16;;;;;;;2.95;0.82;;;12.10;99.90;;;;;;20713239;28;20698;-45
2021/10/13 20:12:18;;;;;;;1.63;0.32;;;12.20;99.90;;;;;;20716151;28;20484;-45
2021/10/13 20:22:19;;;;;;;12.98;0.90;;;12.20;99.90;;;;;;20731148;28;20046;-45
2021/10/13 20:32:20;;;;;;;1.95;0.68;;;12.20;99.90;;;;;;20724930;28;20097;-45
2021/10/13 20:42:21;;;;;;;2.13;0.85;;;12.30;99.90;;;;;;20728227;28;20271;-45
2021/10/13 20:52:22;;;;;;;2.33;0.90;;;12.20;99.90;;;;;;20732507;28;20045;-45
2021/10/13 21:02:23;;;;;;;1.48;0.57;;;12.20;99.90;;;;;;20728260;28;20049;-46
2021/10/13 21:12:24;;;;;;;5.20;1.05;;;12.20;99.90;;;;;;20728000;28;20041;-46
2021/10/13 21:22:25;;;;;;;2.35;0.95;;;12.30;99.90;;;;;;20724757;28;20046;-45
2021/10/13 21:32:26;;;;;;;8.05;2.05;;;12.30;99.90;;;;;;20719426;28;20045;-45
2021/10/13 21:42:28;;;;;;;1.73;0.90;;;12.30;99.90;;;;;;20712679;28;20119;-46
2021/10/13 21:52:29;;;;;;;5.32;1.13;;;12.20;99.90;;;;;;20722906;28;20041;-45
2021/10/13 22:02:30;;;;;;;2.75;1.75;;;12.10;99.90;;;;;;20733076;28;20585;-45
2021/10/13 22:12:32;;;;;;;2.20;1.08;;;11.90;99.90;;;;;;20747540;28;20045;-45
2021/10/13 22:22:35;;;;;;;5.45;1.75;;;11.80;99.90;;;;;;20761992;28;20044;-45
2021/10/13 22:32:38;;;;;;;7.28;2.40;;;11.70;99.90;;;;;;20741863;28;20597;-45
2021/10/13 22:42:40;;;;;;;6.03;1.98;;;11.70;99.90;;;;;;20725556;28;20121;-45
2021/10/13 22:52:42;;;;;;;10.43;2.47;;;11.70;99.90;;;;;;20726014;28;20033;-45
2021/10/13 23:02:43;;;;;;;6.10;2.20;;;11.70;99.90;;;;;;20744929;28;20053;-45
2021/10/13 23:12:44;;;;;;;6.93;3.97;;;11.70;99.90;;;;;;20787892;28;20541;-45
2021/10/13 23:22:45;;;;;;;5.22;2.83;;;11.80;99.90;;;;;;20794383;28;20037;-45
2021/10/13 23:32:46;;;;;;;7.80;3.42;;;11.80;99.90;;;;;;20794148;28;20056;-45
2021/10/13 23:42:47;;;;;;;10.80;3.28;;;11.80;99.90;;;;;;20793088;28;20041;-45
2021/10/13 23:52:48;;;;;;;4.88;2.30;;;11.80;99.90;;;;;;20809219;28;20442;-45
